createdAt,value
2022-07-28T00:01:16.492Z,7.40
2022-07-28T00:03:47.258Z,8.10
2022-07-28T00:06:23.300Z,6.90
2022-07-28T00:08:51.251Z,9.20
2022-07-28T00:11:19.162Z,8.00
2022-07-28T00:13:47.138Z,8.60
2022-07-28T00:16:15.130Z,5.90
2022-07-28T00:18:43.105Z,6.50
2022-07-28T00:21:11.421Z,8.70
2022-07-28T00:23:39.910Z,11.10
2022-07-28T00:26:09.727Z,6.60
2022-07-28T00:28:37.680Z,9.50
2022-07-28T00:31:08.485Z,9.00
2022-07-28T00:33:40.234Z,12.10
2022-07-28T00:36:11.544Z,14.20
2022-07-28T00:38:44.353Z,12.50
2022-07-28T00:41:13.273Z,8.20
2022-07-28T00:43:43.744Z,7.30
2022-07-28T00:46:13.456Z,9.00
2022-07-28T00:48:44.510Z,8.80
2022-07-28T00:51:12.874Z,11.10
2022-07-28T00:53:40.821Z,10.20
2022-07-28T00:56:09.401Z,14.60
2022-07-28T00:58:38.337Z,15.20
2022-07-28T01:01:10.819Z,16.30
2022-07-28T01:03:45.478Z,19.70
2022-07-28T01:06:31.774Z,22.20
2022-07-28T01:09:24.882Z,24.80
2022-07-28T01:12:05.148Z,24.10
2022-07-28T01:14:50.232Z,22.50
2022-07-28T01:17:36.311Z,20.80
2022-07-28T01:20:11.725Z,25.10
2022-07-28T01:22:56.773Z,21.80
2022-07-28T01:25:40.709Z,22.60
2022-07-28T01:28:41.670Z,17.80
2022-07-28T01:31:17.195Z,20.00
2022-07-28T01:33:49.297Z,14.90
2022-07-28T01:36:26.567Z,12.40
2022-07-28T01:38:55.230Z,11.20
2022-07-28T01:41:27.908Z,10.00
2022-07-28T01:44:00.531Z,11.00
2022-07-28T01:46:29.582Z,11.10
2022-07-28T01:48:59.796Z,11.60
2022-07-28T01:51:30.626Z,8.70
2022-07-28T01:54:00.391Z,9.20
2022-07-28T01:56:30.875Z,10.90
2022-07-28T01:59:05.567Z,11.20
2022-07-28T02:01:41.441Z,8.70
2022-07-28T02:04:11.332Z,10.90
2022-07-28T02:06:41.957Z,9.80
2022-07-28T02:09:11.122Z,10.50
2022-07-28T02:11:40.471Z,8.80
2022-07-28T02:14:14.334Z,9.50
2022-07-28T02:16:46.936Z,12.50
2022-07-28T02:19:17.649Z,9.80
2022-07-28T02:21:47.961Z,11.60
2022-07-28T02:24:19.466Z,10.80
2022-07-28T02:26:53.744Z,10.00
2022-07-28T02:29:49.314Z,11.60
2022-07-28T02:33:01.968Z,9.10
2022-07-28T02:35:50.763Z,10.30
2022-07-28T02:38:26.187Z,11.90
2022-07-28T02:40:57.666Z,14.10
2022-07-28T02:43:49.881Z,9.40
2022-07-28T02:46:20.606Z,8.70
2022-07-28T02:48:52.907Z,13.80
2022-07-28T02:51:24.871Z,11.00
2022-07-28T02:53:53.741Z,12.60
2022-07-28T02:56:22.347Z,9.50
2022-07-28T02:58:51.812Z,8.90
2022-07-28T03:01:21.187Z,9.90
2022-07-28T03:03:50.172Z,10.10
2022-07-28T03:06:19.994Z,9.40
2022-07-28T03:08:57.597Z,12.30
2022-07-28T03:11:25.565Z,13.50
2022-07-28T03:13:53.963Z,12.00
2022-07-28T03:16:21.911Z,11.40
2022-07-28T03:18:51.456Z,11.40
2022-07-28T03:21:19.429Z,11.50
2022-07-28T03:23:50.045Z,11.30
2022-07-28T03:26:25.736Z,11.60
2022-07-28T03:28:56.630Z,10.00
2022-07-28T03:31:27.562Z,12.30
2022-07-28T03:33:55.705Z,14.90
2022-07-28T03:36:31.300Z,12.60
2022-07-28T03:39:04.122Z,14.20
2022-07-28T03:41:34.261Z,10.80
2022-07-28T03:44:03.082Z,11.20
2022-07-28T03:46:31.743Z,36.90
2022-07-28T03:49:00.107Z,11.10
2022-07-28T03:51:29.694Z,9.90
2022-07-28T03:53:57.617Z,13.00
2022-07-28T03:56:25.501Z,10.70
2022-07-28T03:58:53.401Z,10.40
2022-07-28T04:01:21.420Z,9.60
2022-07-28T04:03:49.461Z,8.20
2022-07-28T04:06:17.464Z,9.50
2022-07-28T04:08:45.459Z,10.40
2022-07-28T04:11:13.475Z,9.50
2022-07-28T04:13:41.378Z,9.30
2022-07-28T04:16:09.303Z,7.70
2022-07-28T04:18:37.340Z,9.00
2022-07-28T04:21:07.485Z,8.50
2022-07-28T04:23:35.489Z,8.40
2022-07-28T04:26:03.456Z,12.30
2022-07-28T04:28:31.433Z,9.60
2022-07-28T04:30:59.490Z,13.90
2022-07-28T04:33:27.397Z,12.80
2022-07-28T04:35:55.337Z,18.00
2022-07-28T04:38:23.266Z,13.10
2022-07-28T04:40:51.262Z,12.50
2022-07-28T04:43:19.199Z,12.00
2022-07-28T04:45:53.818Z,9.90
2022-07-28T04:48:23.675Z,9.40
2022-07-28T04:50:53.380Z,13.10
2022-07-28T04:53:22.744Z,11.20
2022-07-28T04:55:53.446Z,9.00
2022-07-28T04:58:22.656Z,7.40
2022-07-28T05:00:51.507Z,10.00
2022-07-28T05:03:20.557Z,10.60
2022-07-28T05:05:54.071Z,8.90
2022-07-28T05:08:25.583Z,8.40
2022-07-28T05:10:57.124Z,5.90
2022-07-28T05:13:28.934Z,7.70
2022-07-28T05:15:59.800Z,9.80
2022-07-28T05:18:27.711Z,8.60
2022-07-28T05:21:03.642Z,8.30
2022-07-28T05:23:31.601Z,8.20
2022-07-28T05:25:59.537Z,11.50
2022-07-28T05:28:27.486Z,10.80
2022-07-28T05:30:55.525Z,11.60
2022-07-28T05:33:24.288Z,10.80
2022-07-28T05:35:59.199Z,8.40
2022-07-28T05:38:27.573Z,9.00
2022-07-28T05:40:55.495Z,6.60
2022-07-28T05:43:23.538Z,9.60
2022-07-28T05:45:52.018Z,8.80
2022-07-28T05:48:21.190Z,8.90
2022-07-28T05:50:50.714Z,8.40
2022-07-28T05:53:19.568Z,9.20
2022-07-28T05:55:57.809Z,7.00
2022-07-28T05:58:30.734Z,8.30
2022-07-28T06:01:02.812Z,7.90
2022-07-28T06:03:32.788Z,9.60
2022-07-28T06:06:15.771Z,9.00
2022-07-28T06:08:46.991Z,6.50
2022-07-28T06:11:21.575Z,7.90
2022-07-28T06:13:52.560Z,7.70
2022-07-28T06:16:22.824Z,6.60
2022-07-28T06:18:51.693Z,6.20
2022-07-28T06:21:22.340Z,9.00
2022-07-28T06:23:50.348Z,6.00
2022-07-28T06:26:18.282Z,7.80
2022-07-28T06:28:46.167Z,5.30
2022-07-28T06:31:14.580Z,9.40
2022-07-28T06:33:42.653Z,7.60
2022-07-28T06:36:10.520Z,8.10
2022-07-28T06:38:38.441Z,8.00
2022-07-28T06:41:06.383Z,8.60
2022-07-28T06:43:38.754Z,9.60
2022-07-28T06:46:07.711Z,6.80
2022-07-28T06:48:39.585Z,6.20
2022-07-28T06:51:07.810Z,7.20
2022-07-28T06:53:35.854Z,7.50
2022-07-28T06:56:06.534Z,7.80
2022-07-28T06:58:35.425Z,7.40
2022-07-28T07:01:07.766Z,5.80
2022-07-28T07:03:36.063Z,7.40
2022-07-28T07:06:04.455Z,9.80
2022-07-28T07:08:32.771Z,5.80
2022-07-28T07:11:00.941Z,6.60
2022-07-28T07:13:29.383Z,6.40
2022-07-28T07:15:57.385Z,7.30
2022-07-28T07:18:25.321Z,8.10
2022-07-28T07:20:54.760Z,4.20
2022-07-28T07:23:22.743Z,6.60
2022-07-28T07:25:50.657Z,5.30
2022-07-28T07:28:18.613Z,6.60
2022-07-28T07:30:46.569Z,8.30
2022-07-28T07:33:14.619Z,7.20
2022-07-28T07:35:42.599Z,4.60
2022-07-28T07:38:10.579Z,6.50
2022-07-28T07:40:38.541Z,4.60
2022-07-28T07:43:06.578Z,10.70
2022-07-28T07:45:34.535Z,9.10
2022-07-28T07:48:03.699Z,7.50
2022-07-28T07:50:32.126Z,10.50
2022-07-28T07:53:01.127Z,4.10
2022-07-28T07:55:34.340Z,5.80
2022-07-28T07:58:06.496Z,6.30
2022-07-28T08:00:34.671Z,7.80
2022-07-28T08:03:02.968Z,8.70
2022-07-28T08:05:35.887Z,7.90
2022-07-28T08:08:05.465Z,3.90
2022-07-28T08:10:36.256Z,5.20
2022-07-28T08:13:06.366Z,7.10
2022-07-28T08:15:35.396Z,7.90
2022-07-28T08:18:03.945Z,5.90
2022-07-28T08:20:32.798Z,4.30
2022-07-28T08:23:00.955Z,4.10
2022-07-28T08:25:29.072Z,5.60
2022-07-28T08:27:57.125Z,4.80
2022-07-28T08:30:28.771Z,9.20
2022-07-28T08:33:00.692Z,5.40
2022-07-28T08:35:36.290Z,9.60
2022-07-28T08:38:05.128Z,8.20
2022-07-28T08:40:34.824Z,4.00
2022-07-28T08:43:08.853Z,5.10
2022-07-28T08:48:09.036Z,8.00
2022-07-28T08:50:39.589Z,5.50
2022-07-28T08:53:08.797Z,5.80
2022-07-28T08:55:37.718Z,8.30
2022-07-28T08:58:06.400Z,6.70
2022-07-28T09:00:34.476Z,6.40
2022-07-28T09:03:04.296Z,8.20
2022-07-28T09:05:32.564Z,5.50
2022-07-28T09:08:01.129Z,10.50
2022-07-28T09:10:29.464Z,6.00
2022-07-28T09:12:57.344Z,6.30
2022-07-28T09:15:25.427Z,4.90
2022-07-28T09:17:53.583Z,6.10
2022-07-28T09:20:21.864Z,4.50
2022-07-28T09:23:01.431Z,6.50
2022-07-28T09:25:30.540Z,3.20
2022-07-28T09:28:13.307Z,5.30
2022-07-28T09:30:54.073Z,4.70
2022-07-28T09:33:42.930Z,6.30
2022-07-28T09:36:16.346Z,9.40
2022-07-28T09:38:47.047Z,5.60
2022-07-28T09:41:18.856Z,6.10
2022-07-28T09:43:52.387Z,4.60
2022-07-28T09:46:25.070Z,5.30
2022-07-28T09:48:57.874Z,4.90
2022-07-28T09:51:28.550Z,5.40
2022-07-28T09:54:17.990Z,10.20
2022-07-28T09:56:46.391Z,5.20
2022-07-28T09:59:15.173Z,2.70
2022-07-28T10:02:02.027Z,3.80
2022-07-28T10:04:33.496Z,6.20
2022-07-28T10:07:18.074Z,4.90
2022-07-28T10:10:00.801Z,6.70
2022-07-28T10:12:31.357Z,7.60
2022-07-28T10:15:31.999Z,8.00
2022-07-28T10:18:00.368Z,5.80
2022-07-28T10:20:29.787Z,4.50
2022-07-28T10:23:03.412Z,7.40
2022-07-28T10:25:33.818Z,5.70
2022-07-28T10:28:03.750Z,8.50
2022-07-28T10:30:38.072Z,4.30
2022-07-28T10:33:10.530Z,5.30
2022-07-28T10:35:49.613Z,6.10
2022-07-28T10:40:56.479Z,4.80
2022-07-28T10:43:27.578Z,6.40
2022-07-28T10:46:05.454Z,6.50
2022-07-28T10:48:37.796Z,7.50
2022-07-28T10:51:06.256Z,3.00
2022-07-28T10:53:45.509Z,6.70
2022-07-28T10:56:19.928Z,3.20
2022-07-28T10:59:04.883Z,6.40
2022-07-28T11:01:54.099Z,7.80
2022-07-28T11:04:46.266Z,4.10
2022-07-28T11:07:16.899Z,5.50
2022-07-28T11:09:47.605Z,5.00
2022-07-28T11:12:16.644Z,4.50
2022-07-28T11:14:45.113Z,4.70
2022-07-28T11:17:15.366Z,3.50
2022-07-28T11:22:35.024Z,4.60
2022-07-28T11:25:19.545Z,5.30
2022-07-28T11:27:50.699Z,6.90
2022-07-28T11:30:28.999Z,9.00
2022-07-28T11:32:58.341Z,6.10
2022-07-28T11:35:27.775Z,4.20
2022-07-28T11:38:02.004Z,4.40
2022-07-28T11:40:30.796Z,5.00
2022-07-28T11:43:22.321Z,7.10
2022-07-28T11:46:14.941Z,5.40
2022-07-28T11:48:45.284Z,5.30
2022-07-28T11:51:14.348Z,8.10
2022-07-28T11:53:55.715Z,25.20
2022-07-28T11:56:27.111Z,6.70
2022-07-28T11:59:00.618Z,7.80
2022-07-28T12:04:01.303Z,6.70
2022-07-28T12:06:37.198Z,5.20
2022-07-28T12:09:07.223Z,7.60
2022-07-28T12:11:36.535Z,4.80
2022-07-28T12:14:07.079Z,6.30
2022-07-28T12:16:37.415Z,8.90
2022-07-28T12:19:06.407Z,6.40
2022-07-28T12:21:46.280Z,8.50
2022-07-28T12:24:20.002Z,6.80
2022-07-28T12:26:50.450Z,6.20
2022-07-28T12:29:19.546Z,10.30
2022-07-28T12:32:00.831Z,7.70
2022-07-28T12:34:30.519Z,8.00
2022-07-28T12:37:02.417Z,5.50
2022-07-28T12:39:34.384Z,6.50
2022-07-28T12:42:08.132Z,5.10
2022-07-28T12:47:08.377Z,6.40
2022-07-28T12:49:37.831Z,7.30
2022-07-28T12:52:24.455Z,5.50
2022-07-28T12:54:55.634Z,10.20
2022-07-28T12:57:51.587Z,7.00
2022-07-28T13:00:24.803Z,5.80
2022-07-28T13:02:56.059Z,7.00
2022-07-28T13:05:32.314Z,9.40
2022-07-28T13:08:05.945Z,4.80
2022-07-28T13:10:34.130Z,8.40
2022-07-28T13:13:06.911Z,4.20
2022-07-28T13:15:35.093Z,6.30
2022-07-28T13:18:05.125Z,5.80
2022-07-28T13:20:47.623Z,5.60
2022-07-28T13:23:15.887Z,4.50
2022-07-28T13:25:44.147Z,6.70
2022-07-28T13:28:26.561Z,7.60
2022-07-28T13:30:55.132Z,5.60
2022-07-28T13:33:23.251Z,8.80
2022-07-28T13:35:51.377Z,6.90
2022-07-28T13:38:19.475Z,10.90
2022-07-28T13:40:47.331Z,7.10
2022-07-28T13:43:15.477Z,5.50
2022-07-28T13:45:43.569Z,4.70
2022-07-28T13:48:11.598Z,8.50
2022-07-28T13:50:39.565Z,8.00
2022-07-28T13:53:25.839Z,6.60
2022-07-28T13:55:53.739Z,6.00
2022-07-28T13:58:21.724Z,5.90
2022-07-28T14:00:50.990Z,5.80
2022-07-28T14:03:19.038Z,6.70
2022-07-28T14:05:46.997Z,4.20
2022-07-28T14:08:19.455Z,4.50
2022-07-28T14:10:53.196Z,9.60
2022-07-28T14:13:21.276Z,5.20
2022-07-28T14:15:49.537Z,4.70
2022-07-28T14:18:17.469Z,8.40
2022-07-28T14:20:45.509Z,7.70
2022-07-28T14:23:13.609Z,6.00
2022-07-28T14:25:49.073Z,4.50
2022-07-28T14:28:17.346Z,6.20
2022-07-28T14:30:45.361Z,6.10
2022-07-28T14:33:13.307Z,4.90
2022-07-28T14:35:41.258Z,5.50
2022-07-28T14:38:51.005Z,5.00
2022-07-28T14:41:01.539Z,7.50
2022-07-28T14:43:29.518Z,4.80
2022-07-28T14:46:13.584Z,3.80
2022-07-28T14:48:45.782Z,4.90
2022-07-28T14:51:13.999Z,5.80
2022-07-28T14:53:45.309Z,6.40
2022-07-28T14:56:19.556Z,6.40
2022-07-28T14:58:47.607Z,3.90
2022-07-28T15:01:15.603Z,3.70
2022-07-28T15:03:43.743Z,8.50
2022-07-28T15:06:11.850Z,6.10
2022-07-28T15:08:39.833Z,4.80
2022-07-28T15:11:07.879Z,5.20
2022-07-28T15:13:36.042Z,8.40
2022-07-28T15:16:04.304Z,5.20
2022-07-28T15:18:32.472Z,5.60
2022-07-28T15:21:00.536Z,3.40
2022-07-28T15:23:28.613Z,7.50
2022-07-28T15:25:56.539Z,2.90
2022-07-28T15:28:24.631Z,6.60
2022-07-28T15:30:53.042Z,4.00
2022-07-28T15:33:21.475Z,3.60
2022-07-28T15:35:59.363Z,8.80
2022-07-28T15:38:29.122Z,6.70
2022-07-28T15:41:00.234Z,6.80
2022-07-28T15:43:29.122Z,5.30
2022-07-28T15:45:57.581Z,6.50
2022-07-28T15:48:25.640Z,10.20
2022-07-28T15:50:53.930Z,6.90
2022-07-28T15:53:22.715Z,4.80
2022-07-28T15:55:51.766Z,4.30
2022-07-28T15:58:26.339Z,4.10
2022-07-28T16:01:24.548Z,8.00
2022-07-28T16:03:56.740Z,4.10
2022-07-28T16:07:13.769Z,7.10
2022-07-28T16:09:46.338Z,13.40
2022-07-28T16:12:15.341Z,3.90
2022-07-28T16:14:43.519Z,4.20
2022-07-28T16:17:11.805Z,5.70
2022-07-28T16:19:48.976Z,6.60
2022-07-28T16:22:19.334Z,5.90
2022-07-28T16:24:48.223Z,4.70
2022-07-28T16:27:16.289Z,6.50
2022-07-28T16:29:44.916Z,8.60
2022-07-28T16:32:13.046Z,11.00
2022-07-28T16:34:41.034Z,6.30
2022-07-28T16:37:09.274Z,8.80
2022-07-28T16:39:38.381Z,5.20
2022-07-28T16:42:06.531Z,4.70
2022-07-28T16:44:37.806Z,9.10
2022-07-28T16:47:05.901Z,7.40
2022-07-28T16:49:34.258Z,5.20
2022-07-28T16:52:02.249Z,8.50
2022-07-28T16:54:30.293Z,4.80
2022-07-28T16:56:58.311Z,6.90
2022-07-28T17:00:17.541Z,3.40
2022-07-28T17:02:45.621Z,6.30
2022-07-28T17:05:13.943Z,4.10
2022-07-28T17:07:45.176Z,3.70
2022-07-28T17:10:15.362Z,4.20
2022-07-28T17:12:50.135Z,7.70
2022-07-28T17:15:22.210Z,5.00
2022-07-28T17:17:52.366Z,6.80
2022-07-28T17:20:21.152Z,7.50
2022-07-28T17:22:49.225Z,6.10
2022-07-28T17:28:06.535Z,7.00
2022-07-28T17:30:34.773Z,7.60
2022-07-28T17:33:08.603Z,6.50
2022-07-28T17:35:38.675Z,5.40
2022-07-28T17:38:09.623Z,4.50
2022-07-28T17:40:40.164Z,6.50
2022-07-28T17:43:11.885Z,4.60
2022-07-28T17:45:40.337Z,5.80
2022-07-28T17:48:08.450Z,5.30
2022-07-28T17:50:36.677Z,11.50
2022-07-28T17:53:05.319Z,12.10
2022-07-28T17:55:54.008Z,5.50
2022-07-28T17:58:53.963Z,4.20
2022-07-28T18:01:22.066Z,7.20
2022-07-28T18:03:58.024Z,6.30
2022-07-28T18:06:30.479Z,6.40
2022-07-28T18:09:08.107Z,7.10
2022-07-28T18:11:55.984Z,7.20
2022-07-28T18:14:27.735Z,7.00
2022-07-28T18:16:56.420Z,7.90
2022-07-28T18:19:25.006Z,7.30
2022-07-28T18:21:53.006Z,5.50
2022-07-28T18:24:22.585Z,8.30
2022-07-28T18:26:53.894Z,8.20
2022-07-28T18:29:22.413Z,9.10
2022-07-28T18:31:53.753Z,8.50
2022-07-28T18:34:23.552Z,6.80
2022-07-28T18:36:54.478Z,8.50
2022-07-28T18:39:22.812Z,9.30
2022-07-28T18:41:55.455Z,8.00
2022-07-28T18:44:23.557Z,8.80
2022-07-28T18:46:51.780Z,9.70
2022-07-28T18:49:21.684Z,7.80
2022-07-28T18:51:49.722Z,15.10
2022-07-28T18:54:27.692Z,10.80
2022-07-28T18:56:56.820Z,8.70
2022-07-28T18:59:24.980Z,12.50
2022-07-28T19:01:52.970Z,10.90
2022-07-28T19:04:21.017Z,12.10
2022-07-28T19:06:49.882Z,21.00
2022-07-28T19:09:18.257Z,19.20
2022-07-28T19:11:46.776Z,16.30
2022-07-28T19:14:16.175Z,12.00
2022-07-28T19:16:44.607Z,11.10
2022-07-28T19:19:13.544Z,15.40
2022-07-28T19:21:43.326Z,15.20
2022-07-28T19:24:13.862Z,14.30
2022-07-28T19:26:44.563Z,16.30
2022-07-28T19:29:13.148Z,16.10
2022-07-28T19:31:41.664Z,10.80
2022-07-28T19:34:10.185Z,9.40
2022-07-28T19:36:40.409Z,16.60
2022-07-28T19:39:08.665Z,17.30
2022-07-28T19:41:36.595Z,16.60
2022-07-28T19:44:06.713Z,18.20
2022-07-28T19:46:34.846Z,16.60
2022-07-28T19:49:03.383Z,18.60
2022-07-28T19:51:31.596Z,12.60
2022-07-28T19:54:00.498Z,10.60
2022-07-28T19:56:31.443Z,13.00
2022-07-28T19:59:00.329Z,12.70
2022-07-28T20:01:28.558Z,12.40
2022-07-28T20:04:00.995Z,10.20
2022-07-28T20:06:33.349Z,10.60
2022-07-28T20:09:02.266Z,11.40
2022-07-28T20:11:33.028Z,10.40
2022-07-28T20:14:01.755Z,9.90
2022-07-28T20:16:29.963Z,11.20
2022-07-28T20:18:58.190Z,13.30
2022-07-28T20:21:26.549Z,11.80
2022-07-28T20:23:57.739Z,12.70
2022-07-28T20:26:26.823Z,14.50
2022-07-28T20:28:56.494Z,11.40
2022-07-28T20:31:24.759Z,12.30
2022-07-28T20:33:52.939Z,7.80
2022-07-28T20:36:21.715Z,10.50
2022-07-28T20:38:51.755Z,8.80
2022-07-28T20:41:19.791Z,10.40
2022-07-28T20:44:05.140Z,11.10
2022-07-28T20:46:35.664Z,15.00
2022-07-28T20:49:03.915Z,9.30
2022-07-28T20:51:31.966Z,11.90
2022-07-28T20:55:00.582Z,8.20
2022-07-28T20:58:49.542Z,8.70
2022-07-28T21:02:38.505Z,10.10
2022-07-28T21:06:27.474Z,8.90
2022-07-28T21:10:16.652Z,10.20
2022-07-28T21:14:05.508Z,10.30
2022-07-28T21:17:54.363Z,12.50
2022-07-28T21:20:42.625Z,10.70
2022-07-28T21:23:10.530Z,9.30
2022-07-28T21:25:38.478Z,8.50
2022-07-28T21:28:25.905Z,12.20
2022-07-28T21:30:53.785Z,12.80
2022-07-28T21:33:22.386Z,10.00
2022-07-28T21:35:51.129Z,9.10
2022-07-28T21:38:18.995Z,7.70
2022-07-28T21:40:46.897Z,9.50
2022-07-28T21:43:14.908Z,9.90
2022-07-28T21:45:42.867Z,9.30
2022-07-28T21:48:10.781Z,9.90
2022-07-28T21:50:38.808Z,8.40
2022-07-28T21:53:06.757Z,12.40
2022-07-28T21:55:34.995Z,9.80
2022-07-28T21:58:03.197Z,8.80
2022-07-28T22:00:31.283Z,8.70
2022-07-28T22:03:00.153Z,9.80
2022-07-28T22:05:28.622Z,9.30
2022-07-28T22:07:56.512Z,8.50
2022-07-28T22:10:24.907Z,8.40
2022-07-28T22:12:52.835Z,20.30
2022-07-28T22:15:20.794Z,11.50
2022-07-28T22:17:48.796Z,8.70
2022-07-28T22:20:16.818Z,7.80
2022-07-28T22:22:44.782Z,8.50
2022-07-28T22:25:12.737Z,7.00
2022-07-28T22:27:40.720Z,9.50
2022-07-28T22:30:09.045Z,6.90
2022-07-28T22:32:36.974Z,6.40
2022-07-28T22:35:05.320Z,7.60
2022-07-28T22:37:33.303Z,8.30
2022-07-28T22:40:01.141Z,8.60
2022-07-28T22:42:29.230Z,8.00
2022-07-28T22:44:57.218Z,8.60
2022-07-28T22:47:25.186Z,9.80
2022-07-28T22:49:55.860Z,8.90
2022-07-28T22:52:30.181Z,8.70
2022-07-28T22:55:13.397Z,10.10
2022-07-28T22:57:45.338Z,8.50
2022-07-28T23:00:14.203Z,10.00
2022-07-28T23:02:43.170Z,8.60
2022-07-28T23:05:12.021Z,5.20
2022-07-28T23:07:52.858Z,7.90
2022-07-28T23:10:25.570Z,8.30
2022-07-28T23:12:57.301Z,7.60
2022-07-28T23:15:39.711Z,6.40
2022-07-28T23:18:10.810Z,6.70
2022-07-28T23:20:40.153Z,5.00
2022-07-28T23:23:09.089Z,5.50
2022-07-28T23:25:39.728Z,5.60
2022-07-28T23:28:07.971Z,6.40
2022-07-28T23:30:36.405Z,5.70
2022-07-28T23:33:05.511Z,5.90
2022-07-28T23:35:35.798Z,8.30
2022-07-28T23:38:03.978Z,8.50
2022-07-28T23:40:32.112Z,7.70
2022-07-28T23:43:00.939Z,6.30
2022-07-28T23:45:29.073Z,6.50
2022-07-28T23:47:58.939Z,9.30
2022-07-28T23:50:27.565Z,7.70
2022-07-28T23:52:55.608Z,10.50
2022-07-28T23:55:25.581Z,9.10
2022-07-28T23:57:53.511Z,12.90
